Impacts METAR Board
IDs:

KTPA - Tampa Intl Arpt, FL, US

Updated at: 1100 UTC 09 Jul 2020
Potential Impact None Slight Moderate High
Time 08/23Z 09/00Z 09/01Z 09/02Z 09/03Z 09/04Z 09/05Z 09/06Z 09/07Z 09/08Z 09/09Z 09/10Z 09/11Z
Temp87 86 85 85 84 84 84 83 82 81 81 81 82
Dewpt72 71 71 71 72 72 72 72 72 72 73 72 72
Altim29.93 29.93 29.94 29.95 29.96 29.97 29.97 29.96 29.93 29.93 29.93 29.94 29.94
VIS10 10 10 10 10 10 10 10 10 10 10 10 10
CIG180 180 300 -- -- -- -- -- -- -- -- -- 280
CoverOVCBKNBKNSCTSCTSCTSCTSCTSCTSCTSCTSCTBKN
FltCatVFRVFRVFRVFRVFRVFRVFRVFRVFRVFRVFRVFRVFR
WX--------------------------
WDir270280290280260270270300310280310310310
WSpd9 10 7 10 10 10 9 7 3 4 3 3 5
WGst-- -- -- -- -- -- -- -- -- -- -- -- --
Raw hourly METARs
KTPA 082253Z 27009KT 10SM SCT029 SCT034 BKN180 OVC300 31/22 A2993 RMK AO2 SLP136 T03060222
KTPA 082353Z 28010KT 10SM FEW029 SCT034 BKN180 BKN300 30/22 A2993 RMK AO2 SLP134 T03000217 10317 20300 56007
KTPA 090053Z 29007KT 10SM FEW027 FEW034 SCT190 BKN300 29/22 A2994 RMK AO2 SLP138 T02940217
KTPA 090153Z 28010KT 10SM SCT027 SCT280 29/22 A2995 RMK AO2 SLP143 T02940217
KTPA 090253Z 26010KT 10SM FEW025 SCT280 29/22 A2996 RMK AO2 SLP145 T02890222 51012
KTPA 090353Z 27010KT 10SM FEW025 SCT280 29/22 A2997 RMK AO2 SLP148 T02890222
KTPA 090453Z 27009KT 10SM FEW025 SCT280 29/22 A2997 RMK AO2 SLP148 T02890222 403280272
KTPA 090553Z 30007KT 10SM FEW025 SCT280 28/22 A2996 RMK AO2 SLP143 T02830222 10300 20283 58003
KTPA 090653Z 31003KT 10SM FEW025 SCT280 28/22 A2993 RMK AO2 SLP134 T02780222
KTPA 090753Z 28004KT 10SM FEW025 SCT280 27/22 A2993 RMK AO2 SLP133 T02720222
KTPA 090853Z 31003KT 10SM FEW025 SCT280 27/23 A2993 RMK AO2 SLP135 T02720228 55008
KTPA 090953Z 31003KT 10SM FEW025 SCT280 27/22 A2994 RMK AO2 SLP137 T02720222
KTPA 091053Z 31005KT 10SM FEW025 SCT035 BKN280 28/22 A2994 RMK AO2 SLP139 T02780222



Page loaded:  11:57 UTC  |   04:57 AM Pacific  |   05:57 AM Mountain  |   06:57 AM Central  |   07:57 AM Eastern

 

ADVISORIES

FORECASTS

FORECASTS

OBSERVATIONS

USER TOOLS

ABOUT US